sensor_id;sensor_type;location;lat;lon;timestamp;P1;durP1;ratioP1;P2;durP2;ratioP2
77409;SDS011;66481;51.332;22.804;2024-03-02T00:02:20;46.30;;;20.38;;
77409;SDS011;66481;51.332;22.804;2024-03-02T00:06:21;51.55;;;23.08;;
77409;SDS011;66481;51.332;22.804;2024-03-02T00:10:26;40.53;;;19.08;;
77409;SDS011;66481;51.332;22.804;2024-03-02T00:14:32;42.58;;;19.23;;
77409;SDS011;66481;51.332;22.804;2024-03-02T00:18:34;57.20;;;24.30;;
77409;SDS011;66481;51.332;22.804;2024-03-02T00:22:36;50.78;;;20.30;;
77409;SDS011;66481;51.332;22.804;2024-03-02T00:26:37;47.63;;;19.75;;
77409;SDS011;66481;51.332;22.804;2024-03-02T00:30:55;44.78;;;22.77;;
77409;SDS011;66481;51.332;22.804;2024-03-02T00:35:00;47.53;;;19.70;;
77409;SDS011;66481;51.332;22.804;2024-03-02T00:39:01;52.17;;;21.13;;
77409;SDS011;66481;51.332;22.804;2024-03-02T00:43:03;54.65;;;22.08;;
77409;SDS011;66481;51.332;22.804;2024-03-02T00:47:04;54.00;;;23.05;;
77409;SDS011;66481;51.332;22.804;2024-03-02T00:51:05;48.00;;;21.02;;
77409;SDS011;66481;51.332;22.804;2024-03-02T00:55:07;57.78;;;25.25;;
77409;SDS011;66481;51.332;22.804;2024-03-02T00:59:09;50.10;;;21.65;;
77409;SDS011;66481;51.332;22.804;2024-03-02T01:03:11;39.97;;;18.27;;
77409;SDS011;66481;51.332;22.804;2024-03-02T01:07:12;56.50;;;23.40;;
77409;SDS011;66481;51.332;22.804;2024-03-02T01:11:14;51.95;;;21.08;;
77409;SDS011;66481;51.332;22.804;2024-03-02T01:15:15;52.45;;;21.52;;
77409;SDS011;66481;51.332;22.804;2024-03-02T01:19:16;47.40;;;20.30;;
77409;SDS011;66481;51.332;22.804;2024-03-02T01:23:18;53.88;;;20.63;;
77409;SDS011;66481;51.332;22.804;2024-03-02T01:27:20;49.42;;;22.60;;
77409;SDS011;66481;51.332;22.804;2024-03-02T01:31:21;51.15;;;21.80;;
77409;SDS011;66481;51.332;22.804;2024-03-02T01:35:22;53.85;;;22.50;;
77409;SDS011;66481;51.332;22.804;2024-03-02T01:39:25;58.63;;;22.40;;
77409;SDS011;66481;51.332;22.804;2024-03-02T01:43:27;50.80;;;22.13;;
77409;SDS011;66481;51.332;22.804;2024-03-02T01:47:28;46.83;;;21.45;;
77409;SDS011;66481;51.332;22.804;2024-03-02T01:51:29;44.72;;;20.02;;
77409;SDS011;66481;51.332;22.804;2024-03-02T01:55:30;51.00;;;20.45;;
77409;SDS011;66481;51.332;22.804;2024-03-02T01:59:31;50.83;;;19.40;;
77409;SDS011;66481;51.332;22.804;2024-03-02T02:03:32;43.90;;;19.80;;
77409;SDS011;66481;51.332;22.804;2024-03-02T02:07:35;42.97;;;18.98;;
77409;SDS011;66481;51.332;22.804;2024-03-02T02:11:36;50.72;;;20.83;;
77409;SDS011;66481;51.332;22.804;2024-03-02T02:15:37;39.55;;;16.75;;
77409;SDS011;66481;51.332;22.804;2024-03-02T02:19:40;39.35;;;18.30;;
77409;SDS011;66481;51.332;22.804;2024-03-02T02:23:41;44.33;;;18.52;;
77409;SDS011;66481;51.332;22.804;2024-03-02T02:27:47;43.85;;;19.55;;
77409;SDS011;66481;51.332;22.804;2024-03-02T02:31:48;40.65;;;16.90;;
77409;SDS011;66481;51.332;22.804;2024-03-02T02:35:49;45.08;;;18.60;;
77409;SDS011;66481;51.332;22.804;2024-03-02T02:39:50;38.65;;;16.48;;
77409;SDS011;66481;51.332;22.804;2024-03-02T02:43:51;44.38;;;19.15;;
77409;SDS011;66481;51.332;22.804;2024-03-02T02:47:52;48.33;;;18.05;;
77409;SDS011;66481;51.332;22.804;2024-03-02T02:51:53;43.10;;;17.58;;
77409;SDS011;66481;51.332;22.804;2024-03-02T02:55:54;46.25;;;19.25;;
77409;SDS011;66481;51.332;22.804;2024-03-02T02:59:55;53.33;;;23.20;;
77409;SDS011;66481;51.332;22.804;2024-03-02T03:03:57;47.13;;;20.17;;
77409;SDS011;66481;51.332;22.804;2024-03-02T03:07:57;51.22;;;19.42;;
77409;SDS011;66481;51.332;22.804;2024-03-02T03:11:58;48.25;;;18.50;;
77409;SDS011;66481;51.332;22.804;2024-03-02T03:16:01;44.33;;;20.77;;
77409;SDS011;66481;51.332;22.804;2024-03-02T03:20:03;41.38;;;18.45;;
77409;SDS011;66481;51.332;22.804;2024-03-02T03:24:06;40.47;;;15.85;;
77409;SDS011;66481;51.332;22.804;2024-03-02T03:28:07;41.97;;;17.88;;
77409;SDS011;66481;51.332;22.804;2024-03-02T03:32:10;45.28;;;18.33;;
77409;SDS011;66481;51.332;22.804;2024-03-02T03:36:11;39.53;;;17.63;;
77409;SDS011;66481;51.332;22.804;2024-03-02T03:40:12;50.50;;;19.60;;
77409;SDS011;66481;51.332;22.804;2024-03-02T03:44:15;48.78;;;19.60;;
77409;SDS011;66481;51.332;22.804;2024-03-02T03:48:16;45.75;;;19.20;;
77409;SDS011;66481;51.332;22.804;2024-03-02T03:52:17;49.75;;;19.55;;
77409;SDS011;66481;51.332;22.804;2024-03-02T03:56:18;44.92;;;20.83;;
77409;SDS011;66481;51.332;22.804;2024-03-02T04:00:19;51.15;;;20.45;;
77409;SDS011;66481;51.332;22.804;2024-03-02T04:04:20;57.17;;;21.83;;
77409;SDS011;66481;51.332;22.804;2024-03-02T04:08:22;54.17;;;20.35;;
77409;SDS011;66481;51.332;22.804;2024-03-02T04:12:23;41.92;;;21.70;;
77409;SDS011;66481;51.332;22.804;2024-03-02T04:16:24;43.45;;;19.10;;
77409;SDS011;66481;51.332;22.804;2024-03-02T04:20:25;37.88;;;18.20;;
77409;SDS011;66481;51.332;22.804;2024-03-02T04:24:26;41.63;;;20.30;;
77409;SDS011;66481;51.332;22.804;2024-03-02T04:28:27;42.17;;;18.67;;
77409;SDS011;66481;51.332;22.804;2024-03-02T04:32:28;41.25;;;18.60;;
77409;SDS011;66481;51.332;22.804;2024-03-02T04:36:29;42.08;;;19.48;;
77409;SDS011;66481;51.332;22.804;2024-03-02T04:40:30;44.40;;;19.15;;
77409;SDS011;66481;51.332;22.804;2024-03-02T04:44:32;33.22;;;15.88;;
77409;SDS011;66481;51.332;22.804;2024-03-02T04:48:33;43.60;;;17.40;;
77409;SDS011;66481;51.332;22.804;2024-03-02T04:52:35;53.58;;;21.20;;
77409;SDS011;66481;51.332;22.804;2024-03-02T04:56:36;48.22;;;18.90;;
77409;SDS011;66481;51.332;22.804;2024-03-02T05:00:50;51.25;;;20.27;;
77409;SDS011;66481;51.332;22.804;2024-03-02T05:04:51;56.45;;;23.42;;
77409;SDS011;66481;51.332;22.804;2024-03-02T05:08:52;48.10;;;20.27;;
77409;SDS011;66481;51.332;22.804;2024-03-02T05:12:53;48.72;;;20.20;;
77409;SDS011;66481;51.332;22.804;2024-03-02T05:20:58;58.13;;;22.00;;
77409;SDS011;66481;51.332;22.804;2024-03-02T05:25:00;53.08;;;21.42;;
77409;SDS011;66481;51.332;22.804;2024-03-02T05:29:01;43.33;;;20.90;;
77409;SDS011;66481;51.332;22.804;2024-03-02T05:33:03;50.72;;;21.02;;
77409;SDS011;66481;51.332;22.804;2024-03-02T05:37:05;52.95;;;22.35;;
77409;SDS011;66481;51.332;22.804;2024-03-02T05:41:06;44.33;;;18.33;;
77409;SDS011;66481;51.332;22.804;2024-03-02T05:45:07;43.60;;;21.13;;
77409;SDS011;66481;51.332;22.804;2024-03-02T05:49:08;42.47;;;17.70;;
77409;SDS011;66481;51.332;22.804;2024-03-02T05:53:10;40.35;;;17.50;;
77409;SDS011;66481;51.332;22.804;2024-03-02T05:57:11;38.92;;;17.90;;
77409;SDS011;66481;51.332;22.804;2024-03-02T06:01:34;31.30;;;16.60;;
77409;SDS011;66481;51.332;22.804;2024-03-02T06:05:35;38.92;;;17.23;;
77409;SDS011;66481;51.332;22.804;2024-03-02T06:13:41;36.40;;;17.70;;
77409;SDS011;66481;51.332;22.804;2024-03-02T06:17:42;36.35;;;16.98;;
77409;SDS011;66481;51.332;22.804;2024-03-02T06:21:44;29.60;;;15.65;;
77409;SDS011;66481;51.332;22.804;2024-03-02T06:25:45;38.47;;;17.77;;
77409;SDS011;66481;51.332;22.804;2024-03-02T06:29:46;38.40;;;17.75;;
77409;SDS011;66481;51.332;22.804;2024-03-02T06:33:50;34.08;;;17.95;;
77409;SDS011;66481;51.332;22.804;2024-03-02T06:37:51;28.98;;;15.13;;
77409;SDS011;66481;51.332;22.804;2024-03-02T06:41:52;37.13;;;16.98;;
77409;SDS011;66481;51.332;22.804;2024-03-02T06:45:55;31.15;;;16.55;;
77409;SDS011;66481;51.332;22.804;2024-03-02T06:49:56;39.45;;;18.33;;
77409;SDS011;66481;51.332;22.804;2024-03-02T06:53:59;34.28;;;16.88;;
77409;SDS011;66481;51.332;22.804;2024-03-02T06:58:01;38.85;;;17.85;;
77409;SDS011;66481;51.332;22.804;2024-03-02T07:02:02;34.40;;;16.67;;
77409;SDS011;66481;51.332;22.804;2024-03-02T07:06:03;32.17;;;15.60;;
77409;SDS011;66481;51.332;22.804;2024-03-02T07:10:05;33.17;;;16.58;;
77409;SDS011;66481;51.332;22.804;2024-03-02T07:14:07;32.10;;;15.75;;
77409;SDS011;66481;51.332;22.804;2024-03-02T07:18:09;37.63;;;17.17;;
77409;SDS011;66481;51.332;22.804;2024-03-02T07:22:11;29.65;;;15.48;;
77409;SDS011;66481;51.332;22.804;2024-03-02T07:26:12;37.58;;;18.02;;
77409;SDS011;66481;51.332;22.804;2024-03-02T07:30:15;34.20;;;18.70;;
77409;SDS011;66481;51.332;22.804;2024-03-02T07:34:18;34.75;;;17.30;;
77409;SDS011;66481;51.332;22.804;2024-03-02T07:38:21;41.83;;;22.08;;
77409;SDS011;66481;51.332;22.804;2024-03-02T07:42:22;29.67;;;16.90;;
77409;SDS011;66481;51.332;22.804;2024-03-02T07:46:24;29.85;;;15.35;;
77409;SDS011;66481;51.332;22.804;2024-03-02T07:50:25;35.90;;;16.90;;
77409;SDS011;66481;51.332;22.804;2024-03-02T07:54:28;33.60;;;16.98;;
77409;SDS011;66481;51.332;22.804;2024-03-02T07:58:29;29.63;;;15.02;;
77409;SDS011;66481;51.332;22.804;2024-03-02T08:02:34;29.48;;;14.77;;
77409;SDS011;66481;51.332;22.804;2024-03-02T08:06:36;32.75;;;15.65;;
77409;SDS011;66481;51.332;22.804;2024-03-02T08:10:38;37.03;;;17.73;;
77409;SDS011;66481;51.332;22.804;2024-03-02T08:14:39;36.08;;;17.58;;
77409;SDS011;66481;51.332;22.804;2024-03-02T08:18:41;30.65;;;14.93;;
77409;SDS011;66481;51.332;22.804;2024-03-02T08:22:45;32.55;;;17.42;;
77409;SDS011;66481;51.332;22.804;2024-03-02T08:26:48;36.45;;;17.55;;
77409;SDS011;66481;51.332;22.804;2024-03-02T08:30:49;30.75;;;15.18;;
77409;SDS011;66481;51.332;22.804;2024-03-02T08:34:51;36.40;;;16.67;;
77409;SDS011;66481;51.332;22.804;2024-03-02T08:38:53;34.90;;;16.92;;
77409;SDS011;66481;51.332;22.804;2024-03-02T08:42:54;31.75;;;16.95;;
77409;SDS011;66481;51.332;22.804;2024-03-02T08:46:56;33.22;;;15.52;;
77409;SDS011;66481;51.332;22.804;2024-03-02T08:50:57;36.15;;;16.92;;
77409;SDS011;66481;51.332;22.804;2024-03-02T08:54:58;31.17;;;17.48;;
77409;SDS011;66481;51.332;22.804;2024-03-02T08:59:00;34.80;;;16.83;;
77409;SDS011;66481;51.332;22.804;2024-03-02T09:03:03;30.08;;;16.08;;
77409;SDS011;66481;51.332;22.804;2024-03-02T09:07:06;33.30;;;17.27;;
77409;SDS011;66481;51.332;22.804;2024-03-02T09:11:08;32.45;;;15.52;;
77409;SDS011;66481;51.332;22.804;2024-03-02T09:15:11;34.78;;;15.18;;
77409;SDS011;66481;51.332;22.804;2024-03-02T09:19:13;30.17;;;16.20;;
77409;SDS011;66481;51.332;22.804;2024-03-02T09:23:14;40.90;;;20.05;;
77409;SDS011;66481;51.332;22.804;2024-03-02T09:27:15;43.17;;;19.48;;
77409;SDS011;66481;51.332;22.804;2024-03-02T09:31:17;33.45;;;16.75;;
77409;SDS011;66481;51.332;22.804;2024-03-02T09:35:19;33.90;;;16.38;;
77409;SDS011;66481;51.332;22.804;2024-03-02T09:39:20;35.92;;;17.73;;
77409;SDS011;66481;51.332;22.804;2024-03-02T09:43:21;27.55;;;14.63;;
77409;SDS011;66481;51.332;22.804;2024-03-02T09:47:24;33.17;;;16.63;;
77409;SDS011;66481;51.332;22.804;2024-03-02T09:51:25;32.88;;;16.02;;
77409;SDS011;66481;51.332;22.804;2024-03-02T09:55:27;28.98;;;15.60;;
77409;SDS011;66481;51.332;22.804;2024-03-02T09:59:29;33.45;;;14.73;;
77409;SDS011;66481;51.332;22.804;2024-03-02T10:03:30;29.55;;;14.63;;
77409;SDS011;66481;51.332;22.804;2024-03-02T10:07:33;27.27;;;15.10;;
77409;SDS011;66481;51.332;22.804;2024-03-02T10:11:35;33.25;;;15.50;;
77409;SDS011;66481;51.332;22.804;2024-03-02T10:15:38;29.13;;;15.48;;
77409;SDS011;66481;51.332;22.804;2024-03-02T10:19:44;32.53;;;14.63;;
77409;SDS011;66481;51.332;22.804;2024-03-02T10:23:45;27.80;;;13.88;;
77409;SDS011;66481;51.332;22.804;2024-03-02T10:27:47;31.85;;;15.82;;
77409;SDS011;66481;51.332;22.804;2024-03-02T10:31:51;30.73;;;16.10;;
77409;SDS011;66481;51.332;22.804;2024-03-02T10:35:52;36.10;;;15.80;;
77409;SDS011;66481;51.332;22.804;2024-03-02T10:39:53;25.33;;;14.48;;
77409;SDS011;66481;51.332;22.804;2024-03-02T10:43:56;27.23;;;14.98;;
77409;SDS011;66481;51.332;22.804;2024-03-02T10:48:00;27.67;;;14.65;;
77409;SDS011;66481;51.332;22.804;2024-03-02T10:52:03;32.80;;;14.70;;
77409;SDS011;66481;51.332;22.804;2024-03-02T10:56:04;26.55;;;14.07;;
77409;SDS011;66481;51.332;22.804;2024-03-02T11:04:18;29.10;;;13.63;;
77409;SDS011;66481;51.332;22.804;2024-03-02T11:08:20;24.70;;;14.18;;
77409;SDS011;66481;51.332;22.804;2024-03-02T11:12:29;26.70;;;13.52;;
77409;SDS011;66481;51.332;22.804;2024-03-02T11:16:33;27.58;;;12.70;;
77409;SDS011;66481;51.332;22.804;2024-03-02T11:20:36;37.47;;;17.90;;
77409;SDS011;66481;51.332;22.804;2024-03-02T11:28:49;26.13;;;15.13;;
77409;SDS011;66481;51.332;22.804;2024-03-02T11:32:54;30.60;;;15.93;;
77409;SDS011;66481;51.332;22.804;2024-03-02T11:36:57;32.80;;;15.95;;
77409;SDS011;66481;51.332;22.804;2024-03-02T11:41:03;27.27;;;16.02;;
77409;SDS011;66481;51.332;22.804;2024-03-02T11:45:09;33.65;;;17.45;;
77409;SDS011;66481;51.332;22.804;2024-03-02T11:49:15;23.75;;;13.88;;
77409;SDS011;66481;51.332;22.804;2024-03-02T11:53:16;33.17;;;14.30;;
77409;SDS011;66481;51.332;22.804;2024-03-02T11:57:19;29.08;;;15.27;;
77409;SDS011;66481;51.332;22.804;2024-03-02T12:01:23;27.67;;;13.98;;
77409;SDS011;66481;51.332;22.804;2024-03-02T12:05:26;28.17;;;14.18;;
77409;SDS011;66481;51.332;22.804;2024-03-02T12:09:28;28.88;;;16.52;;
77409;SDS011;66481;51.332;22.804;2024-03-02T12:13:30;28.27;;;15.15;;
77409;SDS011;66481;51.332;22.804;2024-03-02T12:17:32;29.45;;;15.55;;
77409;SDS011;66481;51.332;22.804;2024-03-02T12:21:33;25.42;;;14.82;;
77409;SDS011;66481;51.332;22.804;2024-03-02T12:25:34;29.80;;;15.15;;
77409;SDS011;66481;51.332;22.804;2024-03-02T12:29:37;25.42;;;14.07;;
77409;SDS011;66481;51.332;22.804;2024-03-02T12:33:41;31.70;;;16.52;;
77409;SDS011;66481;51.332;22.804;2024-03-02T12:37:49;28.85;;;15.75;;
77409;SDS011;66481;51.332;22.804;2024-03-02T12:41:51;34.70;;;18.15;;
77409;SDS011;66481;51.332;22.804;2024-03-02T12:45:54;28.77;;;15.23;;
77409;SDS011;66481;51.332;22.804;2024-03-02T12:49:56;32.08;;;15.73;;
77409;SDS011;66481;51.332;22.804;2024-03-02T12:53:58;33.42;;;17.55;;
77409;SDS011;66481;51.332;22.804;2024-03-02T12:57:59;29.63;;;15.02;;
77409;SDS011;66481;51.332;22.804;2024-03-02T13:02:03;25.92;;;15.40;;
77409;SDS011;66481;51.332;22.804;2024-03-02T13:06:05;40.13;;;19.15;;
77409;SDS011;66481;51.332;22.804;2024-03-02T13:10:07;33.35;;;16.75;;
77409;SDS011;66481;51.332;22.804;2024-03-02T13:14:12;33.35;;;15.77;;
77409;SDS011;66481;51.332;22.804;2024-03-02T13:18:14;29.17;;;13.82;;
77409;SDS011;66481;51.332;22.804;2024-03-02T13:22:15;27.08;;;14.40;;
77409;SDS011;66481;51.332;22.804;2024-03-02T13:26:16;29.35;;;15.60;;
77409;SDS011;66481;51.332;22.804;2024-03-02T13:30:17;27.30;;;15.13;;
77409;SDS011;66481;51.332;22.804;2024-03-02T13:34:21;28.23;;;15.10;;
77409;SDS011;66481;51.332;22.804;2024-03-02T13:38:23;25.48;;;14.27;;
77409;SDS011;66481;51.332;22.804;2024-03-02T13:42:25;26.88;;;14.57;;
77409;SDS011;66481;51.332;22.804;2024-03-02T13:46:32;24.95;;;14.30;;
77409;SDS011;66481;51.332;22.804;2024-03-02T13:50:33;23.35;;;14.00;;
77409;SDS011;66481;51.332;22.804;2024-03-02T13:54:41;26.88;;;13.95;;
77409;SDS011;66481;51.332;22.804;2024-03-02T13:58:43;27.00;;;14.98;;
77409;SDS011;66481;51.332;22.804;2024-03-02T14:02:46;35.80;;;20.13;;
77409;SDS011;66481;51.332;22.804;2024-03-02T14:10:51;28.52;;;15.02;;
77409;SDS011;66481;51.332;22.804;2024-03-02T14:14:54;44.17;;;22.80;;
77409;SDS011;66481;51.332;22.804;2024-03-02T14:18:58;39.92;;;21.70;;
77409;SDS011;66481;51.332;22.804;2024-03-02T14:23:00;35.30;;;18.48;;
77409;SDS011;66481;51.332;22.804;2024-03-02T14:27:01;31.67;;;17.60;;
77409;SDS011;66481;51.332;22.804;2024-03-02T14:31:05;30.90;;;16.52;;
77409;SDS011;66481;51.332;22.804;2024-03-02T14:35:06;38.35;;;19.33;;
77409;SDS011;66481;51.332;22.804;2024-03-02T14:39:11;31.45;;;17.38;;
77409;SDS011;66481;51.332;22.804;2024-03-02T14:43:12;37.90;;;18.23;;
77409;SDS011;66481;51.332;22.804;2024-03-02T14:47:15;40.80;;;21.02;;
77409;SDS011;66481;51.332;22.804;2024-03-02T14:51:16;35.45;;;18.85;;
77409;SDS011;66481;51.332;22.804;2024-03-02T14:55:18;37.63;;;18.83;;
77409;SDS011;66481;51.332;22.804;2024-03-02T14:59:20;38.53;;;20.20;;
77409;SDS011;66481;51.332;22.804;2024-03-02T15:03:21;32.10;;;16.50;;
77409;SDS011;66481;51.332;22.804;2024-03-02T15:07:23;33.13;;;17.60;;
77409;SDS011;66481;51.332;22.804;2024-03-02T15:11:27;27.55;;;14.38;;
77409;SDS011;66481;51.332;22.804;2024-03-02T15:15:30;30.25;;;16.73;;
77409;SDS011;66481;51.332;22.804;2024-03-02T15:19:32;31.10;;;18.27;;
77409;SDS011;66481;51.332;22.804;2024-03-02T15:23:33;36.03;;;18.10;;
77409;SDS011;66481;51.332;22.804;2024-03-02T15:27:38;32.10;;;18.95;;
77409;SDS011;66481;51.332;22.804;2024-03-02T15:31:40;36.17;;;19.77;;
77409;SDS011;66481;51.332;22.804;2024-03-02T15:35:42;42.38;;;21.60;;
77409;SDS011;66481;51.332;22.804;2024-03-02T15:39:43;38.33;;;19.15;;
77409;SDS011;66481;51.332;22.804;2024-03-02T15:43:46;41.22;;;18.63;;
77409;SDS011;66481;51.332;22.804;2024-03-02T15:47:48;40.13;;;19.88;;
77409;SDS011;66481;51.332;22.804;2024-03-02T15:51:49;54.08;;;24.20;;
77409;SDS011;66481;51.332;22.804;2024-03-02T15:55:52;35.15;;;19.98;;
77409;SDS011;66481;51.332;22.804;2024-03-02T15:59:53;34.47;;;18.50;;
77409;SDS011;66481;51.332;22.804;2024-03-02T16:03:55;26.85;;;14.00;;
77409;SDS011;66481;51.332;22.804;2024-03-02T16:07:56;28.35;;;16.33;;
77409;SDS011;66481;51.332;22.804;2024-03-02T16:11:58;40.22;;;19.00;;
77409;SDS011;66481;51.332;22.804;2024-03-02T16:15:59;39.00;;;18.60;;
77409;SDS011;66481;51.332;22.804;2024-03-02T16:20:01;36.13;;;17.65;;
77409;SDS011;66481;51.332;22.804;2024-03-02T16:24:06;43.55;;;22.00;;
77409;SDS011;66481;51.332;22.804;2024-03-02T16:28:07;38.08;;;18.88;;
77409;SDS011;66481;51.332;22.804;2024-03-02T16:32:09;35.13;;;16.73;;
77409;SDS011;66481;51.332;22.804;2024-03-02T16:36:10;39.30;;;17.90;;
77409;SDS011;66481;51.332;22.804;2024-03-02T16:40:11;32.83;;;16.83;;
77409;SDS011;66481;51.332;22.804;2024-03-02T16:44:14;33.45;;;16.88;;
77409;SDS011;66481;51.332;22.804;2024-03-02T16:48:15;35.60;;;17.40;;
77409;SDS011;66481;51.332;22.804;2024-03-02T16:52:17;50.10;;;23.45;;
77409;SDS011;66481;51.332;22.804;2024-03-02T16:56:18;50.30;;;22.98;;
77409;SDS011;66481;51.332;22.804;2024-03-02T17:00:20;47.20;;;22.77;;
77409;SDS011;66481;51.332;22.804;2024-03-02T17:04:21;36.60;;;18.58;;
77409;SDS011;66481;51.332;22.804;2024-03-02T17:08:23;29.52;;;16.27;;
77409;SDS011;66481;51.332;22.804;2024-03-02T17:12:25;31.17;;;14.52;;
77409;SDS011;66481;51.332;22.804;2024-03-02T17:16:26;30.77;;;14.50;;
77409;SDS011;66481;51.332;22.804;2024-03-02T17:20:27;28.15;;;14.80;;
77409;SDS011;66481;51.332;22.804;2024-03-02T17:24:29;26.20;;;15.60;;
77409;SDS011;66481;51.332;22.804;2024-03-02T17:28:30;34.83;;;14.98;;
77409;SDS011;66481;51.332;22.804;2024-03-02T17:32:31;31.23;;;16.25;;
77409;SDS011;66481;51.332;22.804;2024-03-02T17:36:32;43.78;;;21.00;;
77409;SDS011;66481;51.332;22.804;2024-03-02T17:40:33;43.65;;;18.88;;
77409;SDS011;66481;51.332;22.804;2024-03-02T17:44:35;34.05;;;16.98;;
77409;SDS011;66481;51.332;22.804;2024-03-02T17:48:38;32.92;;;17.88;;
77409;SDS011;66481;51.332;22.804;2024-03-02T17:52:38;29.92;;;16.17;;
77409;SDS011;66481;51.332;22.804;2024-03-02T17:56:39;31.50;;;16.40;;
77409;SDS011;66481;51.332;22.804;2024-03-02T18:00:41;34.70;;;18.33;;
77409;SDS011;66481;51.332;22.804;2024-03-02T18:04:42;25.67;;;15.52;;
77409;SDS011;66481;51.332;22.804;2024-03-02T18:08:43;28.92;;;17.27;;
77409;SDS011;66481;51.332;22.804;2024-03-02T18:12:45;36.05;;;17.17;;
77409;SDS011;66481;51.332;22.804;2024-03-02T18:16:47;35.50;;;16.10;;
77409;SDS011;66481;51.332;22.804;2024-03-02T18:20:49;38.70;;;19.27;;
77409;SDS011;66481;51.332;22.804;2024-03-02T18:24:51;39.30;;;18.08;;
77409;SDS011;66481;51.332;22.804;2024-03-02T18:28:52;28.70;;;15.90;;
77409;SDS011;66481;51.332;22.804;2024-03-02T18:32:55;39.35;;;18.25;;
77409;SDS011;66481;51.332;22.804;2024-03-02T18:36:57;27.10;;;15.30;;
77409;SDS011;66481;51.332;22.804;2024-03-02T18:41:09;27.60;;;14.73;;
77409;SDS011;66481;51.332;22.804;2024-03-02T18:45:10;28.33;;;15.02;;
77409;SDS011;66481;51.332;22.804;2024-03-02T18:49:12;30.30;;;17.27;;
77409;SDS011;66481;51.332;22.804;2024-03-02T18:53:16;31.77;;;16.60;;
77409;SDS011;66481;51.332;22.804;2024-03-02T18:57:18;32.60;;;16.63;;
77409;SDS011;66481;51.332;22.804;2024-03-02T19:01:22;28.42;;;15.02;;
77409;SDS011;66481;51.332;22.804;2024-03-02T19:05:24;25.77;;;13.52;;
77409;SDS011;66481;51.332;22.804;2024-03-02T19:09:28;27.90;;;14.68;;
77409;SDS011;66481;51.332;22.804;2024-03-02T19:13:34;22.98;;;13.70;;
77409;SDS011;66481;51.332;22.804;2024-03-02T19:17:36;26.33;;;13.77;;
77409;SDS011;66481;51.332;22.804;2024-03-02T19:21:38;19.88;;;10.85;;
77409;SDS011;66481;51.332;22.804;2024-03-02T19:25:40;20.10;;;10.77;;
77409;SDS011;66481;51.332;22.804;2024-03-02T19:29:42;18.10;;;10.65;;
77409;SDS011;66481;51.332;22.804;2024-03-02T19:33:46;21.27;;;11.60;;
77409;SDS011;66481;51.332;22.804;2024-03-02T19:37:51;21.40;;;11.30;;
77409;SDS011;66481;51.332;22.804;2024-03-02T19:41:54;20.77;;;11.52;;
77409;SDS011;66481;51.332;22.804;2024-03-02T19:45:56;24.08;;;13.30;;
77409;SDS011;66481;51.332;22.804;2024-03-02T19:50:00;29.55;;;13.48;;
77409;SDS011;66481;51.332;22.804;2024-03-02T19:54:02;33.13;;;15.07;;
77409;SDS011;66481;51.332;22.804;2024-03-02T19:58:08;28.05;;;13.75;;
77409;SDS011;66481;51.332;22.804;2024-03-02T20:02:09;26.10;;;12.63;;
77409;SDS011;66481;51.332;22.804;2024-03-02T20:06:12;21.65;;;14.05;;
77409;SDS011;66481;51.332;22.804;2024-03-02T20:10:15;24.15;;;12.70;;
77409;SDS011;66481;51.332;22.804;2024-03-02T20:14:18;23.20;;;13.77;;
77409;SDS011;66481;51.332;22.804;2024-03-02T20:18:19;36.38;;;18.15;;
77409;SDS011;66481;51.332;22.804;2024-03-02T20:22:23;23.35;;;12.68;;
77409;SDS011;66481;51.332;22.804;2024-03-02T20:26:24;25.25;;;13.10;;
77409;SDS011;66481;51.332;22.804;2024-03-02T20:30:26;25.13;;;14.15;;
77409;SDS011;66481;51.332;22.804;2024-03-02T20:34:28;25.52;;;11.85;;
77409;SDS011;66481;51.332;22.804;2024-03-02T20:38:30;27.02;;;12.82;;
77409;SDS011;66481;51.332;22.804;2024-03-02T20:42:35;22.25;;;12.60;;
77409;SDS011;66481;51.332;22.804;2024-03-02T20:46:38;20.95;;;12.23;;
77409;SDS011;66481;51.332;22.804;2024-03-02T20:50:40;25.20;;;13.13;;
77409;SDS011;66481;51.332;22.804;2024-03-02T20:54:41;18.40;;;11.77;;
77409;SDS011;66481;51.332;22.804;2024-03-02T20:58:43;21.27;;;12.93;;
77409;SDS011;66481;51.332;22.804;2024-03-02T21:02:46;26.33;;;14.68;;
77409;SDS011;66481;51.332;22.804;2024-03-02T21:06:47;25.58;;;14.90;;
77409;SDS011;66481;51.332;22.804;2024-03-02T21:10:50;27.83;;;15.13;;
77409;SDS011;66481;51.332;22.804;2024-03-02T21:14:52;27.70;;;15.65;;
77409;SDS011;66481;51.332;22.804;2024-03-02T21:18:57;29.65;;;14.75;;
77409;SDS011;66481;51.332;22.804;2024-03-02T21:22:58;26.20;;;14.93;;
77409;SDS011;66481;51.332;22.804;2024-03-02T21:27:00;24.70;;;15.32;;
77409;SDS011;66481;51.332;22.804;2024-03-02T21:31:01;25.20;;;14.40;;
77409;SDS011;66481;51.332;22.804;2024-03-02T21:35:04;25.67;;;14.60;;
77409;SDS011;66481;51.332;22.804;2024-03-02T21:39:06;31.00;;;15.38;;
77409;SDS011;66481;51.332;22.804;2024-03-02T21:43:08;29.95;;;17.33;;
77409;SDS011;66481;51.332;22.804;2024-03-02T21:47:10;26.48;;;15.20;;
77409;SDS011;66481;51.332;22.804;2024-03-02T21:51:15;30.25;;;17.58;;
77409;SDS011;66481;51.332;22.804;2024-03-02T21:55:17;32.83;;;17.38;;
77409;SDS011;66481;51.332;22.804;2024-03-02T21:59:19;30.05;;;15.70;;
77409;SDS011;66481;51.332;22.804;2024-03-02T22:03:20;35.72;;;17.65;;
77409;SDS011;66481;51.332;22.804;2024-03-02T22:07:22;27.75;;;15.95;;
77409;SDS011;66481;51.332;22.804;2024-03-02T22:11:23;30.92;;;17.33;;
77409;SDS011;66481;51.332;22.804;2024-03-02T22:15:26;33.45;;;17.85;;
77409;SDS011;66481;51.332;22.804;2024-03-02T22:19:29;28.70;;;16.52;;
77409;SDS011;66481;51.332;22.804;2024-03-02T22:23:31;34.55;;;18.58;;
77409;SDS011;66481;51.332;22.804;2024-03-02T22:27:32;29.88;;;17.08;;
77409;SDS011;66481;51.332;22.804;2024-03-02T22:31:35;31.17;;;18.02;;
77409;SDS011;66481;51.332;22.804;2024-03-02T22:35:38;32.25;;;18.08;;
77409;SDS011;66481;51.332;22.804;2024-03-02T22:39:40;28.42;;;16.52;;
77409;SDS011;66481;51.332;22.804;2024-03-02T22:43:43;33.60;;;18.13;;
77409;SDS011;66481;51.332;22.804;2024-03-02T22:47:45;31.70;;;16.90;;
77409;SDS011;66481;51.332;22.804;2024-03-02T22:51:47;38.70;;;20.67;;
77409;SDS011;66481;51.332;22.804;2024-03-02T22:55:48;30.95;;;17.48;;
77409;SDS011;66481;51.332;22.804;2024-03-02T22:59:50;31.83;;;18.58;;
77409;SDS011;66481;51.332;22.804;2024-03-02T23:03:51;33.15;;;19.67;;
77409;SDS011;66481;51.332;22.804;2024-03-02T23:07:52;32.70;;;17.65;;
77409;SDS011;66481;51.332;22.804;2024-03-02T23:11:58;32.15;;;17.83;;
77409;SDS011;66481;51.332;22.804;2024-03-02T23:15:59;35.70;;;19.30;;
77409;SDS011;66481;51.332;22.804;2024-03-02T23:20:01;33.08;;;17.95;;
77409;SDS011;66481;51.332;22.804;2024-03-02T23:24:02;31.77;;;18.58;;
77409;SDS011;66481;51.332;22.804;2024-03-02T23:28:03;29.95;;;19.13;;
77409;SDS011;66481;51.332;22.804;2024-03-02T23:32:07;33.78;;;18.88;;
77409;SDS011;66481;51.332;22.804;2024-03-02T23:36:09;34.03;;;17.75;;